aviador You're here:

KBMG Decoded Metar

BLOOMINGTON in IN, USA
Report Time2018-01-18 10:53:00
UTC Time2018-01-18 11:32:28
Flight Rules vfr VFR
Wind240° at 09 kt
W.Decomp.*RWY 24: 9.0 kt HW 0.3 kt RCW
RWY 17: 2.8 kt HW 8.6 kt RCW
W.Rank240° ranks 6
Current wind is above 240° avg. (7.6)
Visibility9999 m
Phenomena:N/A
Clouds:N/A
Expected CloudBase > 1,600 ft AGL from Temp-Dew spread
CeilingNone
Temp-11°C (ISA -24)
Dew Point-15°C (73% RH)
AAT-17.6°C
QNH1028 hPa
Density Alt-2,684 ft
Elevation843 ft
Report Wrong Elevation
Raw Report
METAR KBMG 181053Z AUTO 24009KT 10SM CLR M11/M15 A3036 RMK AO2 SLP297
T11111150=

Extra information for KBMG:More info

Metar Taf Metar & Taf Last 4 Metars F.Rules Stats Wind Profile Meteogram Temp Stats Airport Information Weather charts Add Link Nearby VenuesMetar ALERT Operation Metar Decoded Social comments

AIRNAV info for KBMG